sensor_id;sensor_type;location;lat;lon;timestamp;temperature;humidity
39033;DHT22;24794;51.982;5.878;2024-02-28T00:00:53;5.40;99.90
39033;DHT22;24794;51.982;5.878;2024-02-28T00:01:53;5.40;99.90
39033;DHT22;24794;51.982;5.878;2024-02-28T00:02:54;5.30;99.90
39033;DHT22;24794;51.982;5.878;2024-02-28T00:03:54;5.30;99.90
39033;DHT22;24794;51.982;5.878;2024-02-28T00:04:55;5.20;99.90
39033;DHT22;24794;51.982;5.878;2024-02-28T00:05:55;5.30;99.90
39033;DHT22;24794;51.982;5.878;2024-02-28T00:06:56;5.30;99.90
39033;DHT22;24794;51.982;5.878;2024-02-28T00:07:56;5.30;99.90
39033;DHT22;24794;51.982;5.878;2024-02-28T00:08:57;5.30;99.90
39033;DHT22;24794;51.982;5.878;2024-02-28T00:09:58;5.20;99.90
39033;DHT22;24794;51.982;5.878;2024-02-28T00:10:58;5.20;99.90
39033;DHT22;24794;51.982;5.878;2024-02-28T00:11:59;5.20;99.90
39033;DHT22;24794;51.982;5.878;2024-02-28T00:12:59;5.20;99.90
39033;DHT22;24794;51.982;5.878;2024-02-28T00:14:00;5.20;99.90
39033;DHT22;24794;51.982;5.878;2024-02-28T00:15:02;5.20;99.90
39033;DHT22;24794;51.982;5.878;2024-02-28T00:16:02;5.20;99.90
39033;DHT22;24794;51.982;5.878;2024-02-28T00:17:04;5.20;99.90
39033;DHT22;24794;51.982;5.878;2024-02-28T00:18:05;5.30;99.90
39033;DHT22;24794;51.982;5.878;2024-02-28T00:19:06;5.20;99.90
39033;DHT22;24794;51.982;5.878;2024-02-28T00:20:07;5.20;99.90
39033;DHT22;24794;51.982;5.878;2024-02-28T00:21:08;5.20;99.90
39033;DHT22;24794;51.982;5.878;2024-02-28T00:22:09;5.10;99.90
39033;DHT22;24794;51.982;5.878;2024-02-28T00:23:10;5.10;99.90
39033;DHT22;24794;51.982;5.878;2024-02-28T00:24:10;5.10;99.90
39033;DHT22;24794;51.982;5.878;2024-02-28T00:25:11;5.00;99.90
39033;DHT22;24794;51.982;5.878;2024-02-28T00:26:14;5.00;99.90
39033;DHT22;24794;51.982;5.878;2024-02-28T00:27:14;5.00;99.90
39033;DHT22;24794;51.982;5.878;2024-02-28T00:28:15;5.00;99.90
39033;DHT22;24794;51.982;5.878;2024-02-28T00:29:15;5.00;99.90
39033;DHT22;24794;51.982;5.878;2024-02-28T00:30:17;5.00;99.90
39033;DHT22;24794;51.982;5.878;2024-02-28T00:31:18;5.00;99.90
39033;DHT22;24794;51.982;5.878;2024-02-28T00:32:19;5.10;99.90
39033;DHT22;24794;51.982;5.878;2024-02-28T00:33:19;5.10;99.90
39033;DHT22;24794;51.982;5.878;2024-02-28T00:34:20;5.10;99.90
39033;DHT22;24794;51.982;5.878;2024-02-28T00:35:20;5.10;99.90
39033;DHT22;24794;51.982;5.878;2024-02-28T00:36:21;5.10;99.90
39033;DHT22;24794;51.982;5.878;2024-02-28T00:37:21;5.10;99.90
39033;DHT22;24794;51.982;5.878;2024-02-28T00:38:22;5.10;99.90
39033;DHT22;24794;51.982;5.878;2024-02-28T00:39:23;5.10;99.90
39033;DHT22;24794;51.982;5.878;2024-02-28T00:40:23;5.10;99.90
39033;DHT22;24794;51.982;5.878;2024-02-28T00:41:25;5.10;99.90
39033;DHT22;24794;51.982;5.878;2024-02-28T00:42:26;5.10;99.90
39033;DHT22;24794;51.982;5.878;2024-02-28T00:43:27;5.10;99.90
39033;DHT22;24794;51.982;5.878;2024-02-28T00:44:28;5.10;99.90
39033;DHT22;24794;51.982;5.878;2024-02-28T00:45:28;5.10;99.90
39033;DHT22;24794;51.982;5.878;2024-02-28T00:46:29;5.00;99.90
39033;DHT22;24794;51.982;5.878;2024-02-28T00:47:29;5.00;99.90
39033;DHT22;24794;51.982;5.878;2024-02-28T00:48:30;5.00;99.90
39033;DHT22;24794;51.982;5.878;2024-02-28T00:49:30;5.00;99.90
39033;DHT22;24794;51.982;5.878;2024-02-28T00:50:31;5.10;99.90
39033;DHT22;24794;51.982;5.878;2024-02-28T00:51:31;5.10;99.90
39033;DHT22;24794;51.982;5.878;2024-02-28T00:52:32;5.10;99.90
39033;DHT22;24794;51.982;5.878;2024-02-28T00:53:32;5.10;99.90
39033;DHT22;24794;51.982;5.878;2024-02-28T00:54:33;5.10;99.90
39033;DHT22;24794;51.982;5.878;2024-02-28T00:55:34;5.10;99.90
39033;DHT22;24794;51.982;5.878;2024-02-28T00:56:34;5.10;99.90
39033;DHT22;24794;51.982;5.878;2024-02-28T00:57:35;5.00;99.90
39033;DHT22;24794;51.982;5.878;2024-02-28T00:58:35;5.10;99.90
39033;DHT22;24794;51.982;5.878;2024-02-28T00:59:36;5.00;99.90
39033;DHT22;24794;51.982;5.878;2024-02-28T01:00:37;5.00;99.90
39033;DHT22;24794;51.982;5.878;2024-02-28T01:01:37;5.00;99.90
39033;DHT22;24794;51.982;5.878;2024-02-28T01:02:39;5.00;99.90
39033;DHT22;24794;51.982;5.878;2024-02-28T01:03:39;5.00;99.90
39033;DHT22;24794;51.982;5.878;2024-02-28T01:04:41;5.00;99.90
39033;DHT22;24794;51.982;5.878;2024-02-28T01:05:42;5.00;99.90
39033;DHT22;24794;51.982;5.878;2024-02-28T01:06:42;5.00;99.90
39033;DHT22;24794;51.982;5.878;2024-02-28T01:07:43;4.90;99.90
39033;DHT22;24794;51.982;5.878;2024-02-28T01:08:43;4.90;99.90
39033;DHT22;24794;51.982;5.878;2024-02-28T01:09:44;5.00;99.90
39033;DHT22;24794;51.982;5.878;2024-02-28T01:10:45;4.90;99.90
39033;DHT22;24794;51.982;5.878;2024-02-28T01:11:46;5.00;99.90
39033;DHT22;24794;51.982;5.878;2024-02-28T01:12:47;4.90;99.90
39033;DHT22;24794;51.982;5.878;2024-02-28T01:13:47;4.90;99.90
39033;DHT22;24794;51.982;5.878;2024-02-28T01:14:48;4.90;99.90
39033;DHT22;24794;51.982;5.878;2024-02-28T01:15:48;4.90;99.90
39033;DHT22;24794;51.982;5.878;2024-02-28T01:16:49;4.90;99.90
39033;DHT22;24794;51.982;5.878;2024-02-28T01:17:49;4.90;99.90
39033;DHT22;24794;51.982;5.878;2024-02-28T01:18:50;4.90;99.90
39033;DHT22;24794;51.982;5.878;2024-02-28T01:19:50;4.90;99.90
39033;DHT22;24794;51.982;5.878;2024-02-28T01:20:51;4.90;99.90
39033;DHT22;24794;51.982;5.878;2024-02-28T01:21:53;4.90;99.90
39033;DHT22;24794;51.982;5.878;2024-02-28T01:22:54;4.90;99.90
39033;DHT22;24794;51.982;5.878;2024-02-28T01:23:54;4.90;99.90
39033;DHT22;24794;51.982;5.878;2024-02-28T01:24:55;4.90;99.90
39033;DHT22;24794;51.982;5.878;2024-02-28T01:25:56;4.90;99.90
39033;DHT22;24794;51.982;5.878;2024-02-28T01:26:56;4.90;99.90
39033;DHT22;24794;51.982;5.878;2024-02-28T01:27:57;5.00;99.90
39033;DHT22;24794;51.982;5.878;2024-02-28T01:29:00;5.00;99.90
39033;DHT22;24794;51.982;5.878;2024-02-28T01:30:01;5.00;99.90
39033;DHT22;24794;51.982;5.878;2024-02-28T01:31:02;5.00;99.90
39033;DHT22;24794;51.982;5.878;2024-02-28T01:32:02;5.00;99.90
39033;DHT22;24794;51.982;5.878;2024-02-28T01:33:03;5.00;99.90
39033;DHT22;24794;51.982;5.878;2024-02-28T01:34:04;5.00;99.90
39033;DHT22;24794;51.982;5.878;2024-02-28T01:35:05;5.00;99.90
39033;DHT22;24794;51.982;5.878;2024-02-28T01:36:07;5.00;99.90
39033;DHT22;24794;51.982;5.878;2024-02-28T01:37:07;5.00;99.90
39033;DHT22;24794;51.982;5.878;2024-02-28T01:38:08;5.00;99.90
39033;DHT22;24794;51.982;5.878;2024-02-28T01:39:08;5.00;99.90
39033;DHT22;24794;51.982;5.878;2024-02-28T01:40:09;5.10;99.90
39033;DHT22;24794;51.982;5.878;2024-02-28T01:41:10;5.10;99.90
39033;DHT22;24794;51.982;5.878;2024-02-28T01:42:10;5.10;99.90
39033;DHT22;24794;51.982;5.878;2024-02-28T01:43:11;5.10;99.90
39033;DHT22;24794;51.982;5.878;2024-02-28T01:44:12;5.10;99.90
39033;DHT22;24794;51.982;5.878;2024-02-28T01:45:13;5.10;99.90
39033;DHT22;24794;51.982;5.878;2024-02-28T01:46:24;5.00;99.90
39033;DHT22;24794;51.982;5.878;2024-02-28T01:47:26;5.00;99.90
39033;DHT22;24794;51.982;5.878;2024-02-28T01:48:26;5.00;99.90
39033;DHT22;24794;51.982;5.878;2024-02-28T01:49:27;4.90;99.90
39033;DHT22;24794;51.982;5.878;2024-02-28T01:50:28;4.90;99.90
39033;DHT22;24794;51.982;5.878;2024-02-28T01:51:28;4.80;99.90
39033;DHT22;24794;51.982;5.878;2024-02-28T01:52:29;4.80;99.90
39033;DHT22;24794;51.982;5.878;2024-02-28T01:53:30;4.70;99.90
39033;DHT22;24794;51.982;5.878;2024-02-28T01:54:31;4.70;99.90
39033;DHT22;24794;51.982;5.878;2024-02-28T01:55:33;4.60;99.90
39033;DHT22;24794;51.982;5.878;2024-02-28T01:56:34;4.60;99.90
39033;DHT22;24794;51.982;5.878;2024-02-28T01:57:37;4.60;99.90
39033;DHT22;24794;51.982;5.878;2024-02-28T01:58:37;4.50;99.90
39033;DHT22;24794;51.982;5.878;2024-02-28T01:59:39;4.50;99.90
39033;DHT22;24794;51.982;5.878;2024-02-28T02:00:41;4.40;99.90
39033;DHT22;24794;51.982;5.878;2024-02-28T02:01:41;4.50;99.90
39033;DHT22;24794;51.982;5.878;2024-02-28T02:02:43;4.40;99.90
39033;DHT22;24794;51.982;5.878;2024-02-28T02:03:44;4.40;99.90
39033;DHT22;24794;51.982;5.878;2024-02-28T02:04:44;4.30;99.90
39033;DHT22;24794;51.982;5.878;2024-02-28T02:05:45;4.30;99.90
39033;DHT22;24794;51.982;5.878;2024-02-28T02:06:47;4.30;99.90
39033;DHT22;24794;51.982;5.878;2024-02-28T02:07:48;4.30;99.90
39033;DHT22;24794;51.982;5.878;2024-02-28T02:08:50;4.30;99.90
39033;DHT22;24794;51.982;5.878;2024-02-28T02:09:51;4.30;99.90
39033;DHT22;24794;51.982;5.878;2024-02-28T02:10:52;4.30;99.90
39033;DHT22;24794;51.982;5.878;2024-02-28T02:11:53;4.20;99.90
39033;DHT22;24794;51.982;5.878;2024-02-28T02:12:53;4.20;99.90
39033;DHT22;24794;51.982;5.878;2024-02-28T02:13:54;4.20;99.90
39033;DHT22;24794;51.982;5.878;2024-02-28T02:14:55;4.20;99.90
39033;DHT22;24794;51.982;5.878;2024-02-28T02:15:55;4.20;99.90
39033;DHT22;24794;51.982;5.878;2024-02-28T02:16:56;4.20;99.90
39033;DHT22;24794;51.982;5.878;2024-02-28T02:17:56;4.20;99.90
39033;DHT22;24794;51.982;5.878;2024-02-28T02:18:57;4.20;99.90
39033;DHT22;24794;51.982;5.878;2024-02-28T02:19:58;4.20;99.90
39033;DHT22;24794;51.982;5.878;2024-02-28T02:21:02;4.20;99.90
39033;DHT22;24794;51.982;5.878;2024-02-28T02:22:05;4.20;99.90
39033;DHT22;24794;51.982;5.878;2024-02-28T02:23:08;4.10;99.90
39033;DHT22;24794;51.982;5.878;2024-02-28T02:24:09;4.10;99.90
39033;DHT22;24794;51.982;5.878;2024-02-28T02:25:09;4.20;99.90
39033;DHT22;24794;51.982;5.878;2024-02-28T02:26:10;4.20;99.90
39033;DHT22;24794;51.982;5.878;2024-02-28T02:27:10;4.10;99.90
39033;DHT22;24794;51.982;5.878;2024-02-28T02:28:11;4.20;99.90
39033;DHT22;24794;51.982;5.878;2024-02-28T02:29:12;4.10;99.90
39033;DHT22;24794;51.982;5.878;2024-02-28T02:30:13;4.10;99.90
39033;DHT22;24794;51.982;5.878;2024-02-28T02:31:14;4.10;99.90
39033;DHT22;24794;51.982;5.878;2024-02-28T02:32:14;4.10;99.90
39033;DHT22;24794;51.982;5.878;2024-02-28T02:33:15;4.10;99.90
39033;DHT22;24794;51.982;5.878;2024-02-28T02:34:16;4.10;99.90
39033;DHT22;24794;51.982;5.878;2024-02-28T02:35:17;4.20;99.90
39033;DHT22;24794;51.982;5.878;2024-02-28T02:36:17;4.20;99.90
39033;DHT22;24794;51.982;5.878;2024-02-28T02:37:18;4.10;99.90
39033;DHT22;24794;51.982;5.878;2024-02-28T02:38:19;4.10;99.90
39033;DHT22;24794;51.982;5.878;2024-02-28T02:39:19;4.10;99.90
39033;DHT22;24794;51.982;5.878;2024-02-28T02:40:20;4.10;99.90
39033;DHT22;24794;51.982;5.878;2024-02-28T02:41:20;4.10;99.90
39033;DHT22;24794;51.982;5.878;2024-02-28T02:42:21;4.10;99.90
39033;DHT22;24794;51.982;5.878;2024-02-28T02:43:21;4.10;99.90
39033;DHT22;24794;51.982;5.878;2024-02-28T02:44:22;4.00;99.90
39033;DHT22;24794;51.982;5.878;2024-02-28T02:45:22;4.00;99.90
39033;DHT22;24794;51.982;5.878;2024-02-28T02:46:23;4.00;99.90
39033;DHT22;24794;51.982;5.878;2024-02-28T02:47:23;4.00;99.90
39033;DHT22;24794;51.982;5.878;2024-02-28T02:48:24;4.00;99.90
39033;DHT22;24794;51.982;5.878;2024-02-28T02:49:24;4.00;99.90
39033;DHT22;24794;51.982;5.878;2024-02-28T02:50:25;4.00;99.90
39033;DHT22;24794;51.982;5.878;2024-02-28T02:51:25;4.00;99.90
39033;DHT22;24794;51.982;5.878;2024-02-28T02:52:26;4.00;99.90
39033;DHT22;24794;51.982;5.878;2024-02-28T02:53:26;4.00;99.90
39033;DHT22;24794;51.982;5.878;2024-02-28T02:54:27;4.00;99.90
39033;DHT22;24794;51.982;5.878;2024-02-28T02:55:27;4.00;99.90
39033;DHT22;24794;51.982;5.878;2024-02-28T02:56:28;4.00;99.90
39033;DHT22;24794;51.982;5.878;2024-02-28T02:57:29;4.00;99.90
39033;DHT22;24794;51.982;5.878;2024-02-28T02:58:31;4.00;99.90
39033;DHT22;24794;51.982;5.878;2024-02-28T02:59:31;4.00;99.90
39033;DHT22;24794;51.982;5.878;2024-02-28T03:00:32;4.00;99.90
39033;DHT22;24794;51.982;5.878;2024-02-28T03:01:32;4.00;99.90
39033;DHT22;24794;51.982;5.878;2024-02-28T03:02:33;4.00;99.90
39033;DHT22;24794;51.982;5.878;2024-02-28T03:03:34;4.00;99.90
39033;DHT22;24794;51.982;5.878;2024-02-28T03:04:34;4.00;99.90
39033;DHT22;24794;51.982;5.878;2024-02-28T03:05:35;4.00;99.90
39033;DHT22;24794;51.982;5.878;2024-02-28T03:06:35;3.90;99.90
39033;DHT22;24794;51.982;5.878;2024-02-28T03:07:36;3.90;99.90
39033;DHT22;24794;51.982;5.878;2024-02-28T03:08:37;3.90;99.90
39033;DHT22;24794;51.982;5.878;2024-02-28T03:09:37;3.90;99.90
39033;DHT22;24794;51.982;5.878;2024-02-28T03:10:38;3.90;99.90
39033;DHT22;24794;51.982;5.878;2024-02-28T03:11:39;3.80;99.90
39033;DHT22;24794;51.982;5.878;2024-02-28T03:12:40;3.80;99.90
39033;DHT22;24794;51.982;5.878;2024-02-28T03:13:41;3.80;99.90
39033;DHT22;24794;51.982;5.878;2024-02-28T03:14:42;3.80;99.90
39033;DHT22;24794;51.982;5.878;2024-02-28T03:15:42;3.80;99.90
39033;DHT22;24794;51.982;5.878;2024-02-28T03:16:43;3.80;99.90
39033;DHT22;24794;51.982;5.878;2024-02-28T03:17:43;3.80;99.90
39033;DHT22;24794;51.982;5.878;2024-02-28T03:18:44;3.80;99.90
39033;DHT22;24794;51.982;5.878;2024-02-28T03:19:44;3.80;99.90
39033;DHT22;24794;51.982;5.878;2024-02-28T03:20:45;3.80;99.90
39033;DHT22;24794;51.982;5.878;2024-02-28T03:21:46;3.80;99.90
39033;DHT22;24794;51.982;5.878;2024-02-28T03:22:46;3.90;99.90
39033;DHT22;24794;51.982;5.878;2024-02-28T03:23:47;3.80;99.90
39033;DHT22;24794;51.982;5.878;2024-02-28T03:24:47;3.80;99.90
39033;DHT22;24794;51.982;5.878;2024-02-28T03:25:48;3.80;99.90
39033;DHT22;24794;51.982;5.878;2024-02-28T03:26:49;3.80;99.90
39033;DHT22;24794;51.982;5.878;2024-02-28T03:27:50;3.80;99.90
39033;DHT22;24794;51.982;5.878;2024-02-28T03:28:50;3.80;99.90
39033;DHT22;24794;51.982;5.878;2024-02-28T03:29:51;3.80;99.90
39033;DHT22;24794;51.982;5.878;2024-02-28T03:30:51;3.80;99.90
39033;DHT22;24794;51.982;5.878;2024-02-28T03:31:52;3.80;99.90
39033;DHT22;24794;51.982;5.878;2024-02-28T03:32:52;3.80;99.90
39033;DHT22;24794;51.982;5.878;2024-02-28T03:33:53;3.90;99.90
39033;DHT22;24794;51.982;5.878;2024-02-28T03:34:54;3.90;99.90
39033;DHT22;24794;51.982;5.878;2024-02-28T03:35:54;3.90;99.90
39033;DHT22;24794;51.982;5.878;2024-02-28T03:36:55;3.90;99.90
39033;DHT22;24794;51.982;5.878;2024-02-28T03:37:55;3.90;99.90
39033;DHT22;24794;51.982;5.878;2024-02-28T03:38:56;3.90;99.90
39033;DHT22;24794;51.982;5.878;2024-02-28T03:39:56;3.90;99.90
39033;DHT22;24794;51.982;5.878;2024-02-28T03:40:57;3.90;99.90
39033;DHT22;24794;51.982;5.878;2024-02-28T03:41:57;3.90;99.90
39033;DHT22;24794;51.982;5.878;2024-02-28T03:42:58;3.90;99.90
39033;DHT22;24794;51.982;5.878;2024-02-28T03:43:59;3.90;99.90
39033;DHT22;24794;51.982;5.878;2024-02-28T03:45:00;3.90;99.90
39033;DHT22;24794;51.982;5.878;2024-02-28T03:46:00;3.90;99.90
39033;DHT22;24794;51.982;5.878;2024-02-28T03:47:01;4.00;99.90
39033;DHT22;24794;51.982;5.878;2024-02-28T03:48:02;4.00;99.90
39033;DHT22;24794;51.982;5.878;2024-02-28T03:49:03;4.00;99.90
39033;DHT22;24794;51.982;5.878;2024-02-28T03:50:04;4.00;99.90
39033;DHT22;24794;51.982;5.878;2024-02-28T03:51:05;4.10;99.90
39033;DHT22;24794;51.982;5.878;2024-02-28T03:52:05;4.10;99.90
39033;DHT22;24794;51.982;5.878;2024-02-28T03:53:06;4.20;99.90
39033;DHT22;24794;51.982;5.878;2024-02-28T03:54:07;4.20;99.90
39033;DHT22;24794;51.982;5.878;2024-02-28T03:55:08;4.20;99.90
39033;DHT22;24794;51.982;5.878;2024-02-28T03:56:09;4.30;99.90
39033;DHT22;24794;51.982;5.878;2024-02-28T03:57:10;4.30;99.90
39033;DHT22;24794;51.982;5.878;2024-02-28T03:58:11;4.30;99.90
39033;DHT22;24794;51.982;5.878;2024-02-28T03:59:11;4.30;99.90
39033;DHT22;24794;51.982;5.878;2024-02-28T04:00:12;4.40;99.90
39033;DHT22;24794;51.982;5.878;2024-02-28T04:01:13;4.30;99.90
39033;DHT22;24794;51.982;5.878;2024-02-28T04:02:13;4.40;99.90
39033;DHT22;24794;51.982;5.878;2024-02-28T04:03:14;4.40;99.90
39033;DHT22;24794;51.982;5.878;2024-02-28T04:04:14;4.40;99.90
39033;DHT22;24794;51.982;5.878;2024-02-28T04:05:15;4.40;99.90
39033;DHT22;24794;51.982;5.878;2024-02-28T04:06:17;4.50;99.90
39033;DHT22;24794;51.982;5.878;2024-02-28T04:07:18;4.40;99.90
39033;DHT22;24794;51.982;5.878;2024-02-28T04:08:18;4.40;99.90
39033;DHT22;24794;51.982;5.878;2024-02-28T04:09:19;4.50;99.90
39033;DHT22;24794;51.982;5.878;2024-02-28T04:10:20;4.50;99.90
39033;DHT22;24794;51.982;5.878;2024-02-28T04:11:21;4.50;99.90
39033;DHT22;24794;51.982;5.878;2024-02-28T04:12:22;4.50;99.90
39033;DHT22;24794;51.982;5.878;2024-02-28T04:13:22;4.60;99.90
39033;DHT22;24794;51.982;5.878;2024-02-28T04:14:23;4.60;99.90
39033;DHT22;24794;51.982;5.878;2024-02-28T04:15:23;4.60;99.90
39033;DHT22;24794;51.982;5.878;2024-02-28T04:16:26;4.60;99.90
39033;DHT22;24794;51.982;5.878;2024-02-28T04:17:26;4.60;99.90
39033;DHT22;24794;51.982;5.878;2024-02-28T04:18:27;4.60;99.90
39033;DHT22;24794;51.982;5.878;2024-02-28T04:19:27;4.50;99.90
39033;DHT22;24794;51.982;5.878;2024-02-28T04:20:28;4.50;99.90
39033;DHT22;24794;51.982;5.878;2024-02-28T04:21:28;4.50;99.90
39033;DHT22;24794;51.982;5.878;2024-02-28T04:22:29;4.50;99.90
39033;DHT22;24794;51.982;5.878;2024-02-28T04:23:30;4.50;99.90
39033;DHT22;24794;51.982;5.878;2024-02-28T04:24:30;4.50;99.90
39033;DHT22;24794;51.982;5.878;2024-02-28T04:25:32;4.50;99.90
39033;DHT22;24794;51.982;5.878;2024-02-28T04:26:32;4.50;99.90
39033;DHT22;24794;51.982;5.878;2024-02-28T04:27:34;4.60;99.90
39033;DHT22;24794;51.982;5.878;2024-02-28T04:28:34;4.60;99.90
39033;DHT22;24794;51.982;5.878;2024-02-28T04:29:35;4.60;99.90
39033;DHT22;24794;51.982;5.878;2024-02-28T04:30:35;4.60;99.90
39033;DHT22;24794;51.982;5.878;2024-02-28T04:31:37;4.60;99.90
39033;DHT22;24794;51.982;5.878;2024-02-28T04:32:38;4.70;99.90
39033;DHT22;24794;51.982;5.878;2024-02-28T04:33:39;4.70;99.90
39033;DHT22;24794;51.982;5.878;2024-02-28T04:34:39;4.70;99.90
39033;DHT22;24794;51.982;5.878;2024-02-28T04:35:40;4.70;99.90
39033;DHT22;24794;51.982;5.878;2024-02-28T04:36:40;4.70;99.90
39033;DHT22;24794;51.982;5.878;2024-02-28T04:37:41;4.70;99.90
39033;DHT22;24794;51.982;5.878;2024-02-28T04:38:41;4.60;99.90
39033;DHT22;24794;51.982;5.878;2024-02-28T04:39:42;4.60;99.90
39033;DHT22;24794;51.982;5.878;2024-02-28T04:40:43;4.60;99.90
39033;DHT22;24794;51.982;5.878;2024-02-28T04:41:43;4.60;99.90
39033;DHT22;24794;51.982;5.878;2024-02-28T04:42:44;4.70;99.90
39033;DHT22;24794;51.982;5.878;2024-02-28T04:43:44;4.70;99.90
39033;DHT22;24794;51.982;5.878;2024-02-28T04:44:45;4.70;99.90
39033;DHT22;24794;51.982;5.878;2024-02-28T04:45:45;4.70;99.90
39033;DHT22;24794;51.982;5.878;2024-02-28T04:46:46;4.60;99.90
39033;DHT22;24794;51.982;5.878;2024-02-28T04:47:46;4.60;99.90
39033;DHT22;24794;51.982;5.878;2024-02-28T04:48:47;4.60;99.90
39033;DHT22;24794;51.982;5.878;2024-02-28T04:49:47;4.60;99.90
39033;DHT22;24794;51.982;5.878;2024-02-28T04:50:48;4.60;99.90
39033;DHT22;24794;51.982;5.878;2024-02-28T04:51:48;4.60;99.90
39033;DHT22;24794;51.982;5.878;2024-02-28T04:52:49;4.60;99.90
39033;DHT22;24794;51.982;5.878;2024-02-28T04:53:49;4.60;99.90
39033;DHT22;24794;51.982;5.878;2024-02-28T04:54:51;4.50;99.90
39033;DHT22;24794;51.982;5.878;2024-02-28T04:55:51;4.60;99.90
39033;DHT22;24794;51.982;5.878;2024-02-28T04:56:52;4.50;99.90
39033;DHT22;24794;51.982;5.878;2024-02-28T04:57:53;4.60;99.90
39033;DHT22;24794;51.982;5.878;2024-02-28T04:58:53;4.60;99.90
39033;DHT22;24794;51.982;5.878;2024-02-28T04:59:54;4.50;99.90
39033;DHT22;24794;51.982;5.878;2024-02-28T05:00:54;4.50;99.90
39033;DHT22;24794;51.982;5.878;2024-02-28T05:01:55;4.50;99.90
39033;DHT22;24794;51.982;5.878;2024-02-28T05:02:55;4.50;99.90
39033;DHT22;24794;51.982;5.878;2024-02-28T05:03:56;4.50;99.90
39033;DHT22;24794;51.982;5.878;2024-02-28T05:04:56;4.50;99.90
39033;DHT22;24794;51.982;5.878;2024-02-28T05:05:59;4.50;99.90
39033;DHT22;24794;51.982;5.878;2024-02-28T05:06:59;4.50;99.90
39033;DHT22;24794;51.982;5.878;2024-02-28T05:08:00;4.60;99.90
39033;DHT22;24794;51.982;5.878;2024-02-28T05:09:01;4.50;99.90
39033;DHT22;24794;51.982;5.878;2024-02-28T05:10:02;4.50;99.90
39033;DHT22;24794;51.982;5.878;2024-02-28T05:11:02;4.50;99.90
39033;DHT22;24794;51.982;5.878;2024-02-28T05:12:03;4.50;99.90
39033;DHT22;24794;51.982;5.878;2024-02-28T05:13:03;4.50;99.90
39033;DHT22;24794;51.982;5.878;2024-02-28T05:14:04;4.40;99.90
39033;DHT22;24794;51.982;5.878;2024-02-28T05:15:05;4.40;99.90
39033;DHT22;24794;51.982;5.878;2024-02-28T05:16:14;4.40;99.90
39033;DHT22;24794;51.982;5.878;2024-02-28T05:17:15;4.40;99.90
39033;DHT22;24794;51.982;5.878;2024-02-28T05:18:17;4.40;99.90
39033;DHT22;24794;51.982;5.878;2024-02-28T05:19:17;4.50;99.90
39033;DHT22;24794;51.982;5.878;2024-02-28T05:20:18;4.50;99.90
39033;DHT22;24794;51.982;5.878;2024-02-28T05:21:19;4.40;99.90
39033;DHT22;24794;51.982;5.878;2024-02-28T05:22:20;4.40;99.90
39033;DHT22;24794;51.982;5.878;2024-02-28T05:23:20;4.40;99.90
39033;DHT22;24794;51.982;5.878;2024-02-28T05:24:21;4.30;99.90
39033;DHT22;24794;51.982;5.878;2024-02-28T05:25:22;4.30;99.90
39033;DHT22;24794;51.982;5.878;2024-02-28T05:26:23;4.30;99.90
39033;DHT22;24794;51.982;5.878;2024-02-28T05:27:23;4.30;99.90
39033;DHT22;24794;51.982;5.878;2024-02-28T05:28:24;4.30;99.90
39033;DHT22;24794;51.982;5.878;2024-02-28T05:29:24;4.30;99.90
39033;DHT22;24794;51.982;5.878;2024-02-28T05:30:26;4.30;99.90
39033;DHT22;24794;51.982;5.878;2024-02-28T05:31:27;4.30;99.90
39033;DHT22;24794;51.982;5.878;2024-02-28T05:32:28;4.40;99.90
39033;DHT22;24794;51.982;5.878;2024-02-28T05:33:29;4.40;99.90
39033;DHT22;24794;51.982;5.878;2024-02-28T05:34:29;4.40;99.90
39033;DHT22;24794;51.982;5.878;2024-02-28T05:35:30;4.40;99.90
39033;DHT22;24794;51.982;5.878;2024-02-28T05:36:32;4.40;99.90
39033;DHT22;24794;51.982;5.878;2024-02-28T05:37:32;4.40;99.90
39033;DHT22;24794;51.982;5.878;2024-02-28T05:38:33;4.30;99.90
39033;DHT22;24794;51.982;5.878;2024-02-28T05:39:34;4.30;99.90
39033;DHT22;24794;51.982;5.878;2024-02-28T05:40:34;4.20;99.90
39033;DHT22;24794;51.982;5.878;2024-02-28T05:41:35;4.20;99.90
39033;DHT22;24794;51.982;5.878;2024-02-28T05:42:35;4.20;99.90
39033;DHT22;24794;51.982;5.878;2024-02-28T05:43:40;4.20;99.90
39033;DHT22;24794;51.982;5.878;2024-02-28T05:44:41;4.20;99.90
39033;DHT22;24794;51.982;5.878;2024-02-28T05:45:41;4.20;99.90
39033;DHT22;24794;51.982;5.878;2024-02-28T05:46:42;4.20;99.90
39033;DHT22;24794;51.982;5.878;2024-02-28T05:47:42;4.20;99.90
39033;DHT22;24794;51.982;5.878;2024-02-28T05:48:43;4.20;99.90
39033;DHT22;24794;51.982;5.878;2024-02-28T05:49:44;4.30;99.90
39033;DHT22;24794;51.982;5.878;2024-02-28T05:50:45;4.30;99.90
39033;DHT22;24794;51.982;5.878;2024-02-28T05:51:46;4.30;99.90
39033;DHT22;24794;51.982;5.878;2024-02-28T05:52:47;4.30;99.90
39033;DHT22;24794;51.982;5.878;2024-02-28T05:53:47;4.40;99.90
39033;DHT22;24794;51.982;5.878;2024-02-28T05:54:48;4.40;99.90
39033;DHT22;24794;51.982;5.878;2024-02-28T05:55:49;4.40;99.90
39033;DHT22;24794;51.982;5.878;2024-02-28T05:56:49;4.40;99.90
39033;DHT22;24794;51.982;5.878;2024-02-28T05:57:50;4.50;99.90
39033;DHT22;24794;51.982;5.878;2024-02-28T05:58:50;4.50;99.90
39033;DHT22;24794;51.982;5.878;2024-02-28T05:59:51;4.50;99.90
39033;DHT22;24794;51.982;5.878;2024-02-28T06:00:52;4.50;99.90
39033;DHT22;24794;51.982;5.878;2024-02-28T06:01:52;4.60;99.90
39033;DHT22;24794;51.982;5.878;2024-02-28T06:02:53;4.60;99.90
39033;DHT22;24794;51.982;5.878;2024-02-28T06:03:54;4.60;99.90
39033;DHT22;24794;51.982;5.878;2024-02-28T06:04:54;4.60;99.90
39033;DHT22;24794;51.982;5.878;2024-02-28T06:05:55;4.50;99.90
39033;DHT22;24794;51.982;5.878;2024-02-28T06:06:58;4.60;99.90
39033;DHT22;24794;51.982;5.878;2024-02-28T06:07:58;4.60;99.90
39033;DHT22;24794;51.982;5.878;2024-02-28T06:08:59;4.60;99.90
39033;DHT22;24794;51.982;5.878;2024-02-28T06:10:00;4.50;99.90
39033;DHT22;24794;51.982;5.878;2024-02-28T06:11:01;4.50;99.90
39033;DHT22;24794;51.982;5.878;2024-02-28T06:12:02;4.50;99.90
39033;DHT22;24794;51.982;5.878;2024-02-28T06:13:02;4.50;99.90
39033;DHT22;24794;51.982;5.878;2024-02-28T06:14:03;4.40;99.90
39033;DHT22;24794;51.982;5.878;2024-02-28T06:15:04;4.40;99.90
39033;DHT22;24794;51.982;5.878;2024-02-28T06:16:05;4.40;99.90
39033;DHT22;24794;51.982;5.878;2024-02-28T06:17:06;4.40;99.90
39033;DHT22;24794;51.982;5.878;2024-02-28T06:18:06;4.50;99.90
39033;DHT22;24794;51.982;5.878;2024-02-28T06:19:07;4.50;99.90
39033;DHT22;24794;51.982;5.878;2024-02-28T06:20:07;4.50;99.90
39033;DHT22;24794;51.982;5.878;2024-02-28T06:21:08;4.50;99.90
39033;DHT22;24794;51.982;5.878;2024-02-28T06:22:09;4.50;99.90
39033;DHT22;24794;51.982;5.878;2024-02-28T06:23:09;4.50;99.90
39033;DHT22;24794;51.982;5.878;2024-02-28T06:24:10;4.50;99.90
39033;DHT22;24794;51.982;5.878;2024-02-28T06:25:10;4.50;99.90
39033;DHT22;24794;51.982;5.878;2024-02-28T06:26:19;4.50;99.90
39033;DHT22;24794;51.982;5.878;2024-02-28T06:27:19;4.50;99.90
39033;DHT22;24794;51.982;5.878;2024-02-28T06:28:20;4.50;99.90
39033;DHT22;24794;51.982;5.878;2024-02-28T06:29:21;4.50;99.90
39033;DHT22;24794;51.982;5.878;2024-02-28T06:30:22;4.50;99.90